createdAt,value
2023-02-11T00:04:14.252Z,3.59
2023-02-11T00:09:15.544Z,3.38
2023-02-11T00:14:16.860Z,3.32
2023-02-11T00:19:18.222Z,3.35
2023-02-11T00:24:19.605Z,3.18
2023-02-11T00:29:20.968Z,3.31
2023-02-11T00:34:22.318Z,3.28
2023-02-11T00:39:23.682Z,3.17
2023-02-11T00:44:26.054Z,3.20
2023-02-11T00:49:27.421Z,3.15
2023-02-11T00:54:30.044Z,3.13
2023-02-11T00:59:31.495Z,3.26
2023-02-11T01:04:32.897Z,3.19
2023-02-11T01:09:34.398Z,3.19
2023-02-11T01:14:35.781Z,3.21
2023-02-11T01:19:38.045Z,3.27
2023-02-11T01:24:39.882Z,3.30
2023-02-11T01:29:41.268Z,3.30
2023-02-11T01:34:42.652Z,3.21
2023-02-11T01:39:44.282Z,3.19
2023-02-11T01:44:45.671Z,3.23
2023-02-11T01:49:57.701Z,2.91
2023-02-11T01:55:23.769Z,3.07
2023-02-11T02:00:31.320Z,3.18
2023-02-11T02:05:54.862Z,3.18
2023-02-11T02:10:58.368Z,2.97
2023-02-11T02:16:08.603Z,2.96
2023-02-11T02:21:14.239Z,2.93
2023-02-11T02:26:44.170Z,2.99
2023-02-11T02:32:16.446Z,3.06
2023-02-11T02:37:39.747Z,3.10
2023-02-11T02:42:43.188Z,3.19
2023-02-11T02:47:44.519Z,3.25
2023-02-11T02:53:24.268Z,3.25
2023-02-11T02:59:02.309Z,3.40
2023-02-11T03:04:18.320Z,3.40
2023-02-11T03:09:45.725Z,3.62
2023-02-11T03:14:50.616Z,3.66
2023-02-11T03:19:52.201Z,3.60
2023-02-11T03:24:55.936Z,3.61
2023-02-11T03:30:30.061Z,3.46
2023-02-11T03:35:50.726Z,3.51
2023-02-11T03:40:55.693Z,3.44
2023-02-11T03:45:58.817Z,3.33
2023-02-11T03:51:03.600Z,3.33
2023-02-11T03:56:09.944Z,3.20
2023-02-11T04:01:11.612Z,3.17
2023-02-11T04:06:12.960Z,3.01
2023-02-11T04:11:14.907Z,3.10
2023-02-11T04:16:16.308Z,3.14
2023-02-11T04:21:17.722Z,3.25
2023-02-11T04:26:19.162Z,3.23
2023-02-11T04:31:20.790Z,3.35
2023-02-11T04:36:22.266Z,3.48
2023-02-11T04:41:23.637Z,3.53
2023-02-11T04:46:25.056Z,3.49
2023-02-11T04:51:26.398Z,3.29
2023-02-11T04:56:27.686Z,3.18
2023-02-11T05:01:29.118Z,3.39
2023-02-11T05:06:30.613Z,3.50
2023-02-11T05:11:31.994Z,3.34
2023-02-11T05:16:33.719Z,3.36
2023-02-11T05:21:35.086Z,3.32
2023-02-11T05:26:36.403Z,3.30
2023-02-11T05:31:37.773Z,3.47
2023-02-11T05:36:39.085Z,3.34
2023-02-11T05:41:40.443Z,3.54
2023-02-11T05:46:41.869Z,3.42
2023-02-11T05:51:43.465Z,3.52
2023-02-11T05:56:45.125Z,3.58
2023-02-11T06:01:46.513Z,3.59
2023-02-11T06:06:47.928Z,3.48
2023-02-11T06:11:49.271Z,3.52
2023-02-11T06:16:50.549Z,3.61
2023-02-11T06:21:51.896Z,3.70
2023-02-11T06:26:53.263Z,3.73
2023-02-11T06:31:54.875Z,3.65
2023-02-11T06:36:56.971Z,3.60
2023-02-11T06:41:58.447Z,3.49
2023-02-11T06:46:59.751Z,3.40
2023-02-11T06:52:01.166Z,3.24
2023-02-11T06:57:02.562Z,3.27
2023-02-11T07:02:04.006Z,3.09
2023-02-11T07:07:05.493Z,3.00
2023-02-11T07:12:09.581Z,3.12
2023-02-11T07:17:10.982Z,3.28
2023-02-11T07:22:12.333Z,3.27
2023-02-11T07:27:13.698Z,3.46
2023-02-11T07:32:15.091Z,3.38
2023-02-11T07:37:16.823Z,3.37
2023-02-11T07:42:18.303Z,3.65
2023-02-11T07:47:19.627Z,3.74
2023-02-11T07:52:21.322Z,3.85
2023-02-11T07:57:22.699Z,4.11
2023-02-11T08:02:24.435Z,4.39
2023-02-11T08:07:26.057Z,4.39
2023-02-11T08:12:27.391Z,4.56
2023-02-11T08:17:28.818Z,4.58
2023-02-11T08:22:34.885Z,4.52
2023-02-11T08:27:36.246Z,4.56
2023-02-11T08:32:39.359Z,4.53
2023-02-11T08:37:40.971Z,4.59
2023-02-11T08:42:42.668Z,4.72
2023-02-11T08:47:43.993Z,4.87
2023-02-11T08:52:45.374Z,4.85
2023-02-11T08:57:46.758Z,4.79
2023-02-11T09:02:48.153Z,4.77
2023-02-11T09:07:49.476Z,5.03
2023-02-11T09:12:50.788Z,5.42
2023-02-11T09:17:52.128Z,5.57
2023-02-11T09:22:54.583Z,5.81
2023-02-11T09:27:56.061Z,5.96
2023-02-11T09:32:57.408Z,5.87
2023-02-11T09:37:58.784Z,5.64
2023-02-11T09:43:16.070Z,5.82
2023-02-11T09:48:19.988Z,5.94
2023-02-11T09:53:24.121Z,6.03
2023-02-11T09:58:33.404Z,6.08
2023-02-11T10:03:51.853Z,6.10
2023-02-11T10:09:12.094Z,6.28
2023-02-11T10:14:19.451Z,6.84
2023-02-11T10:19:30.053Z,7.22
2023-02-11T10:24:31.599Z,7.33
2023-02-11T10:29:40.564Z,7.28
2023-02-11T10:34:42.418Z,6.91
2023-02-11T10:39:43.833Z,6.88
2023-02-11T10:45:02.647Z,6.92
2023-02-11T10:50:21.457Z,7.15
2023-02-11T10:55:28.013Z,7.08
2023-02-11T11:00:38.764Z,7.11
2023-02-11T11:06:05.304Z,7.07
2023-02-11T11:11:09.456Z,7.11
2023-02-11T11:16:13.904Z,7.27
2023-02-11T11:21:22.732Z,7.11
2023-02-11T11:26:39.483Z,7.21
2023-02-11T11:31:51.959Z,7.27
2023-02-11T11:36:54.804Z,7.35
2023-02-11T11:42:03.189Z,7.57
2023-02-11T11:47:21.004Z,7.44
2023-02-11T11:53:01.174Z,7.31
2023-02-11T11:58:02.486Z,7.46
2023-02-11T12:03:24.989Z,7.64
2023-02-11T12:08:53.720Z,7.84
2023-02-11T12:14:19.532Z,8.30
2023-02-11T12:19:27.547Z,8.20
2023-02-11T12:25:06.347Z,8.08
2023-02-11T12:30:24.244Z,7.88
2023-02-11T12:35:32.511Z,7.69
2023-02-11T12:40:46.415Z,7.77
2023-02-11T12:46:30.338Z,7.53
2023-02-11T12:51:34.677Z,7.47
2023-02-11T12:57:03.359Z,7.50
2023-02-11T13:02:15.929Z,7.48
2023-02-11T13:07:33.154Z,7.41
2023-02-11T13:12:55.595Z,7.52
2023-02-11T13:18:19.178Z,7.44
2023-02-11T13:23:31.761Z,7.52
2023-02-11T13:28:46.208Z,7.51
2023-02-11T13:33:49.772Z,7.58
2023-02-11T13:38:58.678Z,7.59
2023-02-11T13:44:27.557Z,7.64
2023-02-11T13:49:36.979Z,7.79
2023-02-11T13:54:39.573Z,7.71
2023-02-11T13:59:47.624Z,7.67
2023-02-11T14:05:23.104Z,7.65
2023-02-11T14:10:42.760Z,7.55
2023-02-11T14:15:46.391Z,7.69
2023-02-11T14:20:48.048Z,7.87
2023-02-11T14:26:04.594Z,7.89
2023-02-11T14:31:29.616Z,7.91
2023-02-11T14:36:31.048Z,7.89
2023-02-11T14:41:40.723Z,7.82
2023-02-11T14:46:47.420Z,7.86
2023-02-11T14:51:49.040Z,8.08
2023-02-11T14:57:17.192Z,8.24
2023-02-11T15:02:24.335Z,8.17
2023-02-11T15:07:26.740Z,8.06
2023-02-11T15:12:28.515Z,8.11
2023-02-11T15:17:31.957Z,7.97
2023-02-11T15:22:36.795Z,8.00
2023-02-11T15:27:39.823Z,8.03
2023-02-11T15:32:44.830Z,8.01
2023-02-11T15:37:47.767Z,8.00
2023-02-11T15:43:05.802Z,8.02
2023-02-11T15:48:13.116Z,8.01
2023-02-11T15:53:25.707Z,7.93
2023-02-11T15:58:27.299Z,7.87
2023-02-11T16:03:32.673Z,7.85
2023-02-11T16:08:35.395Z,7.97
2023-02-11T16:13:47.349Z,8.02
2023-02-11T16:19:03.153Z,8.06
2023-02-11T16:24:07.883Z,8.00
2023-02-11T16:29:18.361Z,8.03
2023-02-11T16:34:22.160Z,8.04
2023-02-11T16:39:23.564Z,7.97
2023-02-11T16:44:25.093Z,7.99
2023-02-11T16:49:29.776Z,8.04
2023-02-11T16:54:31.262Z,8.04
2023-02-11T16:59:32.690Z,8.03
2023-02-11T17:04:34.448Z,8.05
2023-02-11T17:09:35.848Z,7.93
2023-02-11T17:14:37.291Z,7.95
2023-02-11T17:19:39.104Z,7.87
2023-02-11T17:24:40.486Z,7.94
2023-02-11T17:29:41.832Z,7.92
2023-02-11T17:34:43.252Z,7.71
2023-02-11T17:39:44.827Z,7.73
2023-02-11T17:44:46.813Z,7.74
2023-02-11T17:49:48.190Z,7.75
2023-02-11T17:54:50.013Z,7.76
2023-02-11T17:59:51.537Z,7.81
2023-02-11T18:04:53.313Z,7.68
2023-02-11T18:09:54.755Z,7.78
2023-02-11T18:14:58.048Z,7.79
2023-02-11T18:19:59.845Z,7.78
2023-02-11T18:25:01.159Z,7.68
2023-02-11T18:30:02.843Z,7.61
2023-02-11T18:35:04.453Z,7.63
2023-02-11T18:40:06.521Z,7.47
2023-02-11T18:45:11.492Z,7.49
2023-02-11T18:50:15.438Z,7.60
2023-02-11T18:55:16.862Z,7.69
2023-02-11T19:00:19.521Z,7.53
2023-02-11T19:05:21.573Z,7.56
2023-02-11T19:10:23.512Z,7.69
2023-02-11T19:15:26.182Z,7.58
2023-02-11T19:20:27.656Z,7.66
2023-02-11T19:25:29.238Z,7.79
2023-02-11T19:30:30.766Z,7.82
2023-02-11T19:35:37.952Z,7.88
2023-02-11T19:40:39.632Z,7.79
2023-02-11T19:45:40.942Z,7.65
2023-02-11T19:50:42.348Z,7.71
2023-02-11T19:55:43.899Z,7.72
2023-02-11T20:00:45.234Z,7.86
2023-02-11T20:05:48.326Z,7.83
2023-02-11T20:10:49.672Z,8.01
2023-02-11T20:15:51.462Z,7.95
2023-02-11T20:20:53.085Z,7.97
2023-02-11T20:25:54.620Z,7.86
2023-02-11T20:30:59.891Z,7.99
2023-02-11T20:36:08.511Z,7.96
2023-02-11T20:41:18.083Z,7.93
2023-02-11T20:46:23.692Z,7.90
2023-02-11T20:51:31.813Z,7.89
2023-02-11T20:56:36.787Z,7.90
2023-02-11T21:01:40.979Z,7.82
2023-02-11T21:06:45.783Z,7.94
2023-02-11T21:11:48.611Z,7.97
2023-02-11T21:16:50.730Z,7.97
2023-02-11T21:21:52.778Z,8.02
2023-02-11T21:26:54.662Z,7.98
2023-02-11T21:31:56.134Z,8.05
2023-02-11T21:36:58.673Z,7.98
2023-02-11T21:42:00.195Z,8.01
2023-02-11T21:47:01.604Z,8.04
2023-02-11T21:52:03.060Z,7.98
2023-02-11T21:57:04.618Z,8.03
2023-02-11T22:02:06.011Z,7.99
2023-02-11T22:07:07.416Z,8.08
2023-02-11T22:12:08.880Z,8.05
2023-02-11T22:17:10.273Z,8.04
2023-02-11T22:22:13.404Z,8.02
2023-02-11T22:27:18.460Z,8.06
2023-02-11T22:32:21.580Z,8.05
2023-02-11T22:37:22.993Z,8.09
2023-02-11T22:42:24.294Z,8.16
2023-02-11T22:47:27.477Z,8.18
2023-02-11T22:52:29.376Z,8.18
2023-02-11T22:57:30.754Z,8.17
2023-02-11T23:02:32.540Z,8.21
2023-02-11T23:07:33.905Z,8.07
2023-02-11T23:12:35.352Z,8.08
2023-02-11T23:17:36.683Z,8.14
2023-02-11T23:22:38.023Z,8.05
2023-02-11T23:27:39.310Z,8.06
2023-02-11T23:32:40.769Z,8.07
2023-02-11T23:37:42.068Z,8.04
2023-02-11T23:42:43.995Z,7.96
2023-02-11T23:47:45.777Z,8.04
2023-02-11T23:52:49.019Z,7.97
2023-02-11T23:57:50.393Z,7.92
